createdAt,value
2022-08-22T00:00:37.345Z,9.41
2022-08-22T00:02:37.378Z,9.42
2022-08-22T00:02:52.182Z,9.45
2022-08-22T00:03:05.514Z,9.52
2022-08-22T00:04:37.344Z,9.35
2022-08-22T00:06:37.352Z,9.25
2022-08-22T00:08:37.344Z,9.28
2022-08-22T00:10:37.352Z,9.28
2022-08-22T00:12:37.354Z,9.32
2022-08-22T00:14:37.351Z,9.32
2022-08-22T00:16:37.360Z,9.32
2022-08-22T00:18:37.353Z,9.26
2022-08-22T00:20:37.353Z,9.41
2022-08-22T00:22:37.352Z,9.42
2022-08-22T00:24:37.356Z,9.47
2022-08-22T00:26:37.352Z,9.46
2022-08-22T00:28:37.354Z,9.46
2022-08-22T00:30:37.361Z,9.34
2022-08-22T00:32:37.373Z,9.37
2022-08-22T00:34:37.360Z,9.33
2022-08-22T00:36:37.368Z,9.33
2022-08-22T00:38:37.368Z,9.33
2022-08-22T00:40:37.358Z,9.37
2022-08-22T00:42:37.363Z,9.33
2022-08-22T00:44:37.363Z,9.34
2022-08-22T00:46:37.380Z,9.38
2022-08-22T00:48:37.529Z,9.38
2022-08-22T00:50:37.371Z,9.33
2022-08-22T00:52:37.378Z,9.34
2022-08-22T00:54:37.380Z,9.33
2022-08-22T00:56:37.375Z,9.33
2022-08-22T00:58:37.377Z,9.34
2022-08-22T01:00:37.384Z,9.31
2022-08-22T01:02:37.389Z,9.29
2022-08-22T01:04:37.410Z,9.31
2022-08-22T01:06:37.399Z,9.24
2022-08-22T01:08:37.398Z,9.28
2022-08-22T01:10:37.395Z,9.32
2022-08-22T01:12:37.399Z,9.34
2022-08-22T01:14:37.406Z,9.32
2022-08-22T01:16:37.414Z,9.33
2022-08-22T01:18:37.404Z,9.25
2022-08-22T01:20:37.410Z,9.27
2022-08-22T01:22:37.417Z,9.27
2022-08-22T01:24:37.414Z,9.27
2022-08-22T01:26:37.413Z,9.28
2022-08-22T01:28:37.415Z,9.28
2022-08-22T01:30:37.417Z,9.22
2022-08-22T01:32:37.419Z,9.27
2022-08-22T01:34:37.420Z,9.23
2022-08-22T01:36:37.417Z,9.26
2022-08-22T01:38:37.421Z,9.28
2022-08-22T01:40:37.425Z,9.28
2022-08-22T01:42:37.427Z,9.29
2022-08-22T01:44:37.434Z,9.32
2022-08-22T01:46:37.444Z,9.34
2022-08-22T01:48:37.431Z,9.4
2022-08-22T01:50:37.434Z,9.41
2022-08-22T01:52:37.441Z,9.4
2022-08-22T01:54:37.439Z,9.36
2022-08-22T01:56:37.448Z,9.32
2022-08-22T01:58:37.450Z,9.28
2022-08-22T02:00:37.442Z,9.32
2022-08-22T02:02:37.450Z,9.34
2022-08-22T02:04:37.510Z,9.35
2022-08-22T02:06:37.452Z,9.29
2022-08-22T02:08:37.660Z,9.32
2022-08-22T02:10:37.455Z,9.28
2022-08-22T02:12:37.464Z,9.29
2022-08-22T02:14:37.460Z,9.26
2022-08-22T02:16:37.474Z,9.22
2022-08-22T02:18:37.478Z,9.23
2022-08-22T02:20:37.471Z,9.2
2022-08-22T02:22:37.482Z,9.18
2022-08-22T02:24:37.477Z,9.2
2022-08-22T02:26:37.499Z,9.21
2022-08-22T02:28:37.482Z,9.21
2022-08-22T02:30:37.488Z,9.23
2022-08-22T02:32:37.499Z,9.25
2022-08-22T02:34:37.503Z,9.23
2022-08-22T02:36:37.485Z,9.23
2022-08-22T02:38:37.488Z,9.18
2022-08-22T02:40:37.494Z,9.18
2022-08-22T02:42:37.499Z,9.18
2022-08-22T02:44:37.500Z,9.2
2022-08-22T02:46:37.507Z,9.13
2022-08-22T02:48:37.501Z,9.12
2022-08-22T02:50:37.504Z,9.07
2022-08-22T02:52:37.500Z,9.08
2022-08-22T02:54:37.506Z,9.03
2022-08-22T02:56:37.521Z,9.06
2022-08-22T02:58:37.514Z,9.08
2022-08-22T03:00:37.564Z,9.1
2022-08-22T03:02:37.515Z,9.12
2022-08-22T03:04:37.517Z,9.14
2022-08-22T03:06:37.518Z,9.15
2022-08-22T03:08:37.525Z,9.09
2022-08-22T03:10:37.526Z,9.09
2022-08-22T03:12:37.526Z,9.09
2022-08-22T03:14:37.529Z,9.1
2022-08-22T03:16:37.540Z,9.11
2022-08-22T03:18:37.531Z,9.11
2022-08-22T03:20:37.522Z,9.12
2022-08-22T03:22:37.534Z,9.19
2022-08-22T03:24:37.538Z,9.18
2022-08-22T03:26:37.535Z,9.16
2022-08-22T03:28:37.540Z,9.17
2022-08-22T03:30:37.540Z,9.17
2022-08-22T03:32:37.541Z,9.09
2022-08-22T03:34:37.547Z,9.08
2022-08-22T03:36:37.546Z,9.08
2022-08-22T03:38:37.559Z,9.07
2022-08-22T03:40:37.556Z,9.09
2022-08-22T03:42:37.557Z,9.1
2022-08-22T03:44:37.565Z,9.04
2022-08-22T03:46:37.577Z,9.12
2022-08-22T03:48:37.576Z,9.13
2022-08-22T03:50:37.566Z,9.14
2022-08-22T03:52:37.567Z,9.09
2022-08-22T03:54:37.570Z,9.14
2022-08-22T03:56:37.582Z,9.07
2022-08-22T03:58:37.583Z,9.06
2022-08-22T04:00:37.623Z,9.07
2022-08-22T04:02:42.602Z,9.09
2022-08-22T04:04:37.605Z,9.1
2022-08-22T04:06:37.607Z,9.1
2022-08-22T04:08:37.615Z,9.1
2022-08-22T04:10:37.614Z,9.1
2022-08-22T04:12:37.616Z,9.11
2022-08-22T04:14:37.624Z,9.13
2022-08-22T04:16:37.632Z,9.19
2022-08-22T04:18:37.624Z,9.19
2022-08-22T04:20:37.622Z,9.11
2022-08-22T04:22:37.632Z,9.15
2022-08-22T04:24:37.659Z,9.09
2022-08-22T04:26:37.645Z,9.1
2022-08-22T04:28:37.640Z,9.13
2022-08-22T04:30:37.643Z,9.14
2022-08-22T04:32:37.648Z,9.14
2022-08-22T04:34:37.658Z,9.13
2022-08-22T04:36:37.659Z,9.04
2022-08-22T04:38:37.661Z,9.01
2022-08-22T04:40:37.662Z,9.01
2022-08-22T04:42:37.670Z,9.03
2022-08-22T04:44:37.669Z,9.05
2022-08-22T04:46:37.684Z,9.11
2022-08-22T04:48:37.674Z,9.11
2022-08-22T04:50:41.235Z,9.1
2022-08-22T04:52:37.683Z,9.09
2022-08-22T04:54:37.685Z,9.13
2022-08-22T04:56:37.693Z,9.1
2022-08-22T04:58:37.712Z,9.09
2022-08-22T05:00:37.697Z,9.1
2022-08-22T05:02:37.701Z,9.17
2022-08-22T05:04:37.703Z,9.19
2022-08-22T05:06:37.709Z,9.27
2022-08-22T05:08:37.704Z,9.34
2022-08-22T05:10:37.706Z,9.35
2022-08-22T05:12:37.701Z,9.36
2022-08-22T05:14:37.723Z,9.41
2022-08-22T05:16:37.722Z,9.45
2022-08-22T05:18:37.716Z,9.5
2022-08-22T05:20:37.719Z,9.53
2022-08-22T05:22:37.729Z,9.57
2022-08-22T05:24:37.730Z,9.62
2022-08-22T05:26:37.737Z,9.67
2022-08-22T05:28:37.741Z,9.68
2022-08-22T05:30:37.758Z,9.71
2022-08-22T05:32:37.758Z,9.72
2022-08-22T05:34:37.756Z,9.77
2022-08-22T05:36:37.761Z,9.88
2022-08-22T05:38:37.768Z,9.92
2022-08-22T05:40:37.952Z,9.96
2022-08-22T05:42:37.770Z,10.05
2022-08-22T05:44:37.779Z,10.07
2022-08-22T05:46:37.790Z,10.16
2022-08-22T05:48:37.783Z,10.26
2022-08-22T05:50:37.782Z,10.35
2022-08-22T05:52:37.790Z,10.41
2022-08-22T05:54:37.798Z,10.46
2022-08-22T05:56:37.798Z,10.56
2022-08-22T05:58:37.805Z,10.59
2022-08-22T06:00:37.817Z,10.66
2022-08-22T06:02:37.806Z,10.74
2022-08-22T06:04:37.809Z,10.69
2022-08-22T06:06:37.813Z,10.77
2022-08-22T06:08:37.824Z,10.87
2022-08-22T06:10:37.828Z,10.87
2022-08-22T06:12:37.836Z,10.89
2022-08-22T06:14:37.836Z,11.02
2022-08-22T06:16:37.851Z,11.15
2022-08-22T06:18:37.843Z,11.18
2022-08-22T06:20:37.849Z,11.12
2022-08-22T06:22:37.857Z,11.16
2022-08-22T06:24:37.859Z,11.21
2022-08-22T06:26:37.867Z,11.26
2022-08-22T06:28:37.870Z,11.32
2022-08-22T06:30:37.871Z,11.28
2022-08-22T06:32:47.092Z,11.35
2022-08-22T06:34:37.888Z,11.36
2022-08-22T06:36:37.891Z,11.47
2022-08-22T06:38:37.904Z,11.36
2022-08-22T06:40:37.903Z,11.32
2022-08-22T06:42:37.905Z,11.32
2022-08-22T06:44:37.920Z,11.28
2022-08-22T06:46:37.930Z,11.2
2022-08-22T06:48:37.924Z,11.21
2022-08-22T06:50:37.928Z,11.22
2022-08-22T06:52:37.934Z,11.2
2022-08-22T06:54:37.932Z,11.14
2022-08-22T06:56:37.944Z,11.12
2022-08-22T06:58:37.946Z,11.14
2022-08-22T07:00:37.953Z,11.13
2022-08-22T07:02:37.954Z,11.13
2022-08-22T07:04:37.970Z,11.14
2022-08-22T07:06:37.970Z,11.22
2022-08-22T07:08:39.223Z,11.24
2022-08-22T07:10:37.984Z,11.24
2022-08-22T07:12:37.994Z,11.26
2022-08-22T07:14:37.998Z,11.34
2022-08-22T07:16:38.008Z,11.35
2022-08-22T07:18:38.004Z,11.54
2022-08-22T07:20:38.011Z,11.63
2022-08-22T07:22:38.014Z,11.51
2022-08-22T07:24:38.021Z,11.48
2022-08-22T07:26:38.034Z,11.46
2022-08-22T07:28:51.013Z,11.51
2022-08-22T07:30:38.042Z,11.57
2022-08-22T07:32:38.050Z,11.77
2022-08-22T07:34:38.057Z,11.75
2022-08-22T07:36:38.061Z,11.8
2022-08-22T07:38:38.082Z,11.82
2022-08-22T07:40:38.078Z,11.7
2022-08-22T07:42:38.087Z,11.86
2022-08-22T07:44:38.091Z,11.87
2022-08-22T07:46:38.100Z,11.88
2022-08-22T07:48:48.607Z,11.78
2022-08-22T07:50:38.108Z,11.81
2022-08-22T07:52:38.118Z,11.86
2022-08-22T07:54:38.123Z,11.88
2022-08-22T07:56:38.130Z,11.91
2022-08-22T07:58:38.134Z,11.97
2022-08-22T08:00:38.148Z,12.02
2022-08-22T08:02:38.156Z,11.93
2022-08-22T08:04:40.370Z,11.88
2022-08-22T08:06:38.166Z,12.04
2022-08-22T08:08:38.179Z,11.85
2022-08-22T08:10:38.182Z,11.77
2022-08-22T08:12:38.189Z,11.82
2022-08-22T08:14:38.191Z,11.95
2022-08-22T08:16:38.212Z,12.1
2022-08-22T08:18:38.217Z,12.04
2022-08-22T08:20:38.218Z,12.07
2022-08-22T08:22:38.227Z,12.15
2022-08-22T08:24:40.223Z,12.21
2022-08-22T08:26:38.236Z,12.23
2022-08-22T08:28:38.258Z,12.26
2022-08-22T08:30:38.261Z,12.17
2022-08-22T08:32:38.265Z,12.33
2022-08-22T08:34:38.276Z,12.15
2022-08-22T08:36:38.282Z,12.24
2022-08-22T08:38:38.279Z,12.19
2022-08-22T08:40:38.288Z,12.29
2022-08-22T08:42:38.311Z,12.23
2022-08-22T08:44:38.306Z,12.09
2022-08-22T08:46:38.565Z,12.19
2022-08-22T08:48:38.318Z,12.04
2022-08-22T08:50:38.329Z,11.71
2022-08-22T08:52:38.343Z,11.89
2022-08-22T08:54:38.347Z,11.63
2022-08-22T08:56:38.357Z,11.84
2022-08-22T08:58:38.364Z,11.69
2022-08-22T09:00:38.367Z,11.75
2022-08-22T09:02:40.515Z,11.42
2022-08-22T09:04:38.382Z,11.38
2022-08-22T09:06:38.394Z,11.16
2022-08-22T09:08:38.401Z,11
2022-08-22T09:10:38.411Z,10.94
2022-08-22T09:12:38.411Z,10.96
2022-08-22T09:14:38.418Z,10.66
2022-08-22T09:16:38.429Z,10.36
2022-08-22T09:18:38.455Z,9.99
2022-08-22T09:20:38.445Z,10.16
2022-08-22T09:22:50.325Z,10.27
2022-08-22T09:24:38.450Z,10.15
2022-08-22T09:26:38.455Z,10.22
2022-08-22T09:28:38.464Z,10.53
2022-08-22T09:30:38.460Z,9.59
2022-08-22T09:32:38.474Z,9.73
2022-08-22T09:34:38.472Z,10.02
2022-08-22T09:36:38.501Z,9.97
2022-08-22T09:38:38.492Z,9.73
2022-08-22T09:40:38.490Z,9.64
2022-08-22T09:42:38.505Z,9.73
2022-08-22T09:44:39.512Z,9.79
2022-08-22T09:46:38.524Z,9.87
2022-08-22T09:48:38.517Z,9.9
2022-08-22T09:50:38.516Z,10.28
2022-08-22T09:52:38.527Z,10.12
2022-08-22T09:54:38.534Z,10.23
2022-08-22T09:56:38.535Z,10.44
2022-08-22T09:58:40.811Z,10.26
2022-08-22T10:00:38.617Z,10.4
2022-08-22T10:02:43.260Z,9.85
2022-08-22T10:04:38.556Z,10.17
2022-08-22T10:06:38.558Z,10.15
2022-08-22T10:08:38.570Z,9.85
2022-08-22T10:10:38.573Z,9.93
2022-08-22T10:12:38.582Z,9.78
2022-08-22T10:14:38.586Z,9.95
2022-08-22T10:16:38.602Z,9.98
2022-08-22T10:18:42.185Z,10.09
2022-08-22T10:20:38.596Z,9.76
2022-08-22T10:22:38.599Z,10.01
2022-08-22T10:24:43.623Z,10.05
2022-08-22T10:26:39.017Z,10.12
2022-08-22T10:28:38.603Z,9.82
2022-08-22T10:30:38.605Z,10.09
2022-08-22T10:32:38.614Z,10.09
2022-08-22T10:34:38.614Z,10.09
2022-08-22T10:36:38.613Z,10.25
2022-08-22T10:38:44.131Z,10.18
2022-08-22T10:40:38.615Z,9.98
2022-08-22T10:42:38.626Z,9.82
2022-08-22T10:44:38.624Z,10.2
2022-08-22T10:46:38.890Z,10.1
2022-08-22T10:48:38.624Z,10.12
2022-08-22T10:50:38.625Z,10.01
2022-08-22T10:52:38.631Z,9.93
2022-08-22T10:54:38.631Z,9.93
2022-08-22T10:56:38.633Z,9.97
2022-08-22T10:58:38.636Z,9.98
2022-08-22T11:00:38.686Z,9.79
2022-08-22T11:02:38.635Z,9.77
2022-08-22T11:04:38.643Z,10.03
2022-08-22T11:06:38.644Z,10.43
2022-08-22T11:08:38.640Z,10.38
2022-08-22T11:10:38.647Z,10.1
2022-08-22T11:12:41.471Z,10
2022-08-22T11:14:38.669Z,10
2022-08-22T11:16:41.526Z,9.97
2022-08-22T11:18:38.645Z,10
2022-08-22T11:20:38.645Z,9.72
2022-08-22T11:22:38.651Z,9.93
2022-08-22T11:24:45.504Z,9.71
2022-08-22T11:26:46.939Z,9.9
2022-08-22T11:28:38.652Z,9.72
2022-08-22T11:30:44.021Z,9.75
2022-08-22T11:32:38.673Z,9.46
2022-08-22T11:34:38.684Z,9.48
2022-08-22T11:36:38.702Z,9.46
2022-08-22T11:38:38.717Z,9.35
2022-08-22T11:40:38.729Z,9.38
2022-08-22T11:42:38.737Z,9.13
2022-08-22T11:44:50.622Z,9.11
2022-08-22T11:46:38.774Z,9.18
2022-08-22T11:48:38.772Z,9.33
2022-08-22T11:50:38.786Z,9.91
2022-08-22T11:52:38.803Z,9.79
2022-08-22T11:54:38.812Z,9.98
2022-08-22T11:56:40.106Z,9.94
2022-08-22T11:58:38.827Z,9.89
2022-08-22T12:00:38.840Z,9.96
2022-08-22T12:02:38.905Z,9.64
2022-08-22T12:04:38.856Z,9.56
2022-08-22T12:06:38.857Z,9.71
2022-08-22T12:08:38.866Z,9.77
2022-08-22T12:10:38.880Z,9.86
2022-08-22T12:12:38.895Z,9.83
2022-08-22T12:14:38.901Z,9.85
2022-08-22T12:16:38.924Z,9.81
2022-08-22T12:18:38.930Z,9.93
2022-08-22T12:20:38.939Z,9.8
2022-08-22T12:22:38.950Z,9.42
2022-08-22T12:24:38.968Z,8.85
2022-08-22T12:26:38.974Z,9.11
2022-08-22T12:28:38.986Z,9.36
2022-08-22T12:30:38.997Z,9.38
2022-08-22T12:32:39.015Z,9.41
2022-08-22T12:34:39.024Z,8.78
2022-08-22T12:36:39.040Z,8.85
2022-08-22T12:38:39.052Z,8.91
2022-08-22T12:40:39.070Z,8.99
2022-08-22T12:42:39.080Z,8.85
2022-08-22T12:44:39.091Z,8.84
2022-08-22T12:46:39.115Z,9.02
2022-08-22T12:48:39.118Z,9.17
2022-08-22T12:50:39.124Z,9.08
2022-08-22T12:52:39.129Z,8.85
2022-08-22T12:54:39.133Z,8.89
2022-08-22T12:56:39.126Z,8.8
2022-08-22T12:58:39.139Z,8.62
2022-08-22T13:00:39.242Z,8.59
2022-08-22T13:02:39.172Z,8.8
2022-08-22T13:04:39.185Z,8.6
2022-08-22T13:06:39.200Z,8.74
2022-08-22T13:08:39.221Z,8.69
2022-08-22T13:10:39.230Z,8.81
2022-08-22T13:12:40.059Z,8.83
2022-08-22T13:14:39.263Z,8.88
2022-08-22T13:16:39.292Z,9
2022-08-22T13:18:39.296Z,8.91
2022-08-22T13:20:39.307Z,9.1
2022-08-22T13:22:39.333Z,9.17
2022-08-22T13:24:39.466Z,9.29
2022-08-22T13:26:41.807Z,9.15
2022-08-22T13:28:39.371Z,9.05
2022-08-22T13:30:39.383Z,9.13
2022-08-22T13:32:39.401Z,9.07
2022-08-22T13:34:39.760Z,9.19
2022-08-22T13:36:39.439Z,9.27
2022-08-22T13:38:39.450Z,9.23
2022-08-22T13:40:39.467Z,9.31
2022-08-22T13:42:40.036Z,9.25
2022-08-22T13:44:39.483Z,9.25
2022-08-22T13:46:52.919Z,9.36
2022-08-22T13:48:39.484Z,9.29
2022-08-22T13:50:53.234Z,9.33
2022-08-22T13:52:39.506Z,9.45
2022-08-22T13:54:40.084Z,9.74
2022-08-22T13:56:39.544Z,9.53
2022-08-22T13:58:39.548Z,8.93
2022-08-22T14:00:39.566Z,9.05
2022-08-22T14:02:43.136Z,9.57
2022-08-22T14:04:39.601Z,9.74
2022-08-22T14:06:41.310Z,9.26
2022-08-22T14:08:39.641Z,9.61
2022-08-22T14:10:39.647Z,9.75
2022-08-22T14:12:49.872Z,9.83
2022-08-22T14:14:39.669Z,9.69
2022-08-22T14:16:39.690Z,9.44
2022-08-22T14:18:45.728Z,9.19
2022-08-22T14:20:39.698Z,9.22
2022-08-22T14:22:39.708Z,9.39
2022-08-22T14:24:45.884Z,9.65
2022-08-22T14:26:47.309Z,9.87
2022-08-22T14:28:39.739Z,9.87
2022-08-22T14:30:39.752Z,9.76
2022-08-22T14:32:41.920Z,9.73
2022-08-22T14:34:39.777Z,9.76
2022-08-22T14:36:39.787Z,9.77
2022-08-22T14:38:39.789Z,9.71
2022-08-22T14:40:39.791Z,9.6
2022-08-22T14:42:39.799Z,9.74
2022-08-22T14:44:39.808Z,9.71
2022-08-22T14:46:39.827Z,9.74
2022-08-22T14:48:40.769Z,9.69
2022-08-22T14:50:39.837Z,9.77
2022-08-22T14:52:40.628Z,9.72
2022-08-22T14:54:39.861Z,9.8
2022-08-22T14:56:39.869Z,9.8
2022-08-22T14:58:39.994Z,9.8
2022-08-22T15:00:39.897Z,9.85
2022-08-22T15:02:39.911Z,9.82
2022-08-22T15:04:39.921Z,9.82
2022-08-22T15:06:47.943Z,9.77
2022-08-22T15:08:42.276Z,9.74
2022-08-22T15:10:42.309Z,9.72
2022-08-22T15:12:39.960Z,9.66
2022-08-22T15:14:39.977Z,9.61
2022-08-22T15:16:40.358Z,9.69
2022-08-22T15:18:40.000Z,9.72
2022-08-22T15:20:45.316Z,9.69
2022-08-22T15:22:40.024Z,9.66
2022-08-22T15:24:40.039Z,9.72
2022-08-22T15:26:40.043Z,9.77
2022-08-22T15:28:49.843Z,9.85
2022-08-22T15:30:44.204Z,9.72
2022-08-22T15:32:41.898Z,9.74
2022-08-22T15:34:40.068Z,9.61
2022-08-22T15:36:40.067Z,9.66
2022-08-22T15:38:40.077Z,9.69
2022-08-22T15:40:40.351Z,9.72
2022-08-22T15:42:40.099Z,9.63
2022-08-22T15:44:40.110Z,9.63
2022-08-22T15:46:40.138Z,9.77
2022-08-22T15:48:40.138Z,9.72
2022-08-22T15:50:40.153Z,9.66
2022-08-22T15:52:40.155Z,9.69
2022-08-22T15:54:43.878Z,9.72
2022-08-22T15:56:40.178Z,9.74
2022-08-22T15:58:40.188Z,9.8
2022-08-22T16:00:43.666Z,9.82
2022-08-22T16:02:40.212Z,9.66
2022-08-22T16:04:40.214Z,9.69
2022-08-22T16:06:40.224Z,9.66
2022-08-22T16:08:40.231Z,9.66
2022-08-22T16:10:40.242Z,9.66
2022-08-22T16:12:40.250Z,9.66
2022-08-22T16:14:40.256Z,9.61
2022-08-22T16:16:40.275Z,9.56
2022-08-22T16:18:40.276Z,9.61
2022-08-22T16:20:40.286Z,9.61
2022-08-22T16:22:42.618Z,9.61
2022-08-22T16:24:40.299Z,9.5
2022-08-22T16:26:40.352Z,9.58
2022-08-22T16:28:57.704Z,9.5
2022-08-22T16:30:40.311Z,9.53
2022-08-22T16:32:40.319Z,9.37
2022-08-22T16:34:40.331Z,9.4
2022-08-22T16:36:40.347Z,9.37
2022-08-22T16:38:40.358Z,9.27
2022-08-22T16:40:40.373Z,9.3
2022-08-22T16:42:40.382Z,9.22
2022-08-22T16:44:40.401Z,9.24
2022-08-22T16:46:40.425Z,9.22
2022-08-22T16:48:40.426Z,9.35
2022-08-22T16:50:40.440Z,9.35
2022-08-22T16:52:40.450Z,9.27
2022-08-22T16:54:40.463Z,9.32
2022-08-22T16:56:40.474Z,9.27
2022-08-22T16:58:56.852Z,9.37
2022-08-22T17:00:40.483Z,9.4
2022-08-22T17:02:40.492Z,9.4
2022-08-22T17:04:40.495Z,9.42
2022-08-22T17:06:40.503Z,9.42
2022-08-22T17:08:40.519Z,9.4
2022-08-22T17:10:40.528Z,9.4
2022-08-22T17:12:40.540Z,9.37
2022-08-22T17:14:40.542Z,9.44
2022-08-22T17:16:40.561Z,9.42
2022-08-22T17:18:40.549Z,9.44
2022-08-22T17:20:40.559Z,9.49
2022-08-22T17:22:40.576Z,9.59
2022-08-22T17:24:40.580Z,9.66
2022-08-22T17:26:40.597Z,9.68
2022-08-22T17:28:40.611Z,9.7
2022-08-22T17:30:40.630Z,9.85
2022-08-22T17:32:40.645Z,9.91
2022-08-22T17:34:40.655Z,9.98
2022-08-22T17:36:40.667Z,10.02
2022-08-22T17:38:40.683Z,9.99
2022-08-22T17:40:40.698Z,10
2022-08-22T17:42:40.711Z,9.96
2022-08-22T17:44:40.734Z,10.06
2022-08-22T17:46:40.759Z,10.09
2022-08-22T17:48:40.759Z,9.98
2022-08-22T17:50:40.771Z,9.97
2022-08-22T17:52:40.787Z,9.98
2022-08-22T17:54:40.804Z,10
2022-08-22T17:56:40.816Z,9.98
2022-08-22T17:58:43.622Z,10.02
2022-08-22T18:00:40.829Z,9.98
2022-08-22T18:02:40.832Z,9.97
2022-08-22T18:04:43.327Z,9.98
2022-08-22T18:06:40.842Z,9.99
2022-08-22T18:10:41.063Z,10.01
2022-08-22T18:12:40.859Z,10.02
2022-08-22T18:14:40.878Z,10
2022-08-22T18:16:40.899Z,10.01
2022-08-22T18:18:40.912Z,10
2022-08-22T18:20:40.927Z,9.98
2022-08-22T18:22:40.941Z,9.97
2022-08-22T18:24:40.954Z,10.05
2022-08-22T18:26:40.969Z,10
2022-08-22T18:28:40.985Z,10
2022-08-22T18:30:41.006Z,9.97
2022-08-22T18:32:41.019Z,10.01
2022-08-22T18:34:41.173Z,9.97
2022-08-22T18:36:41.071Z,9.98
2022-08-22T18:38:41.063Z,9.96
2022-08-22T18:40:45.486Z,10.06
2022-08-22T18:42:41.094Z,10.04
2022-08-22T18:44:41.121Z,10.05
2022-08-22T18:46:41.141Z,10.09
2022-08-22T18:48:54.657Z,10.11
2022-08-22T18:50:41.150Z,10.09
2022-08-22T18:52:41.157Z,10.05
2022-08-22T18:54:41.165Z,10.07
2022-08-22T18:56:41.168Z,10.03
2022-08-22T18:58:41.176Z,10.07
2022-08-22T19:00:41.174Z,10.05
2022-08-22T19:02:41.192Z,10.09
2022-08-22T19:04:41.210Z,10.03
2022-08-22T19:06:41.221Z,10.01
2022-08-22T19:08:41.238Z,10.03
2022-08-22T19:10:41.255Z,10.03
2022-08-22T19:12:41.276Z,9.99
2022-08-22T19:14:41.291Z,10.01
2022-08-22T19:16:41.318Z,9.99
2022-08-22T19:18:41.325Z,9.99
2022-08-22T19:20:41.345Z,9.95
2022-08-22T19:22:41.363Z,9.97
2022-08-22T19:24:41.384Z,9.97
2022-08-22T19:26:41.409Z,9.99
2022-08-22T19:28:41.434Z,10.03
2022-08-22T19:30:41.451Z,10.02
2022-08-22T19:32:41.469Z,9.97
2022-08-22T19:34:41.483Z,9.99
2022-08-22T19:36:41.504Z,10.02
2022-08-22T19:38:41.522Z,10
2022-08-22T19:40:41.534Z,10.04
2022-08-22T19:42:41.649Z,9.98
2022-08-22T19:44:41.564Z,10.02
2022-08-22T19:46:41.583Z,9.99
2022-08-22T19:48:41.586Z,9.97
2022-08-22T19:50:41.588Z,10.03
2022-08-22T19:52:41.591Z,10
2022-08-22T19:54:41.614Z,10.02
2022-08-22T19:56:41.627Z,10
2022-08-22T19:58:41.649Z,9.98
2022-08-22T20:00:41.695Z,9.94
2022-08-22T20:02:41.686Z,9.99
2022-08-22T20:04:41.713Z,9.92
2022-08-22T20:06:44.226Z,9.94
2022-08-22T20:08:41.751Z,9.92
2022-08-22T20:10:41.777Z,9.94
2022-08-22T20:12:41.795Z,9.89
2022-08-22T20:14:41.812Z,9.88
2022-08-22T20:16:41.858Z,9.89
2022-08-22T20:18:53.634Z,9.87
2022-08-22T20:20:41.885Z,9.87
2022-08-22T20:22:41.906Z,9.92
2022-08-22T20:24:41.938Z,9.87
2022-08-22T20:26:57.513Z,9.86
2022-08-22T20:28:42.221Z,9.86
2022-08-22T20:30:42.011Z,9.88
2022-08-22T20:32:42.017Z,9.82
2022-08-22T20:34:42.022Z,9.85
2022-08-22T20:36:42.034Z,9.87
2022-08-22T20:38:42.117Z,9.83
2022-08-22T20:40:55.774Z,9.85
2022-08-22T20:42:42.049Z,9.81
2022-08-22T20:44:42.057Z,9.81
2022-08-22T20:46:43.500Z,9.81
2022-08-22T20:48:42.082Z,9.81
2022-08-22T20:50:42.101Z,9.77
2022-08-22T20:52:42.108Z,9.77
2022-08-22T20:54:42.131Z,9.77
2022-08-22T20:56:48.768Z,9.8
2022-08-22T20:58:42.158Z,9.76
2022-08-22T21:00:42.231Z,9.79
2022-08-22T21:02:42.189Z,9.77
2022-08-22T21:04:42.876Z,9.78
2022-08-22T21:06:42.220Z,9.78
2022-08-22T21:08:42.237Z,9.81
2022-08-22T21:10:42.253Z,9.78
2022-08-22T21:12:42.272Z,9.82
2022-08-22T21:14:42.286Z,9.79
2022-08-22T21:16:42.315Z,9.82
2022-08-22T21:18:42.318Z,9.78
2022-08-22T21:20:42.340Z,9.76
2022-08-22T21:22:42.352Z,9.82
2022-08-22T21:24:42.365Z,9.81
2022-08-22T21:26:42.376Z,9.81
2022-08-22T21:28:42.379Z,9.8
2022-08-22T21:30:42.383Z,9.83
2022-08-22T21:32:42.387Z,9.81
2022-08-22T21:34:42.390Z,9.78
2022-08-22T21:36:42.390Z,9.8
2022-08-22T21:38:42.399Z,9.77
2022-08-22T21:40:42.421Z,9.8
2022-08-22T21:42:42.438Z,9.79
2022-08-22T21:44:42.467Z,9.82
2022-08-22T21:46:42.473Z,9.78
2022-08-22T21:48:42.487Z,9.81
2022-08-22T21:50:42.502Z,9.78
2022-08-22T21:52:42.510Z,9.83
2022-08-22T21:54:42.528Z,9.83
2022-08-22T21:56:42.545Z,9.86
2022-08-22T21:58:42.560Z,9.78
2022-08-22T22:00:45.897Z,9.81
2022-08-22T22:02:43.785Z,9.83
2022-08-22T22:04:42.617Z,9.81
2022-08-22T22:06:42.633Z,9.83
2022-08-22T22:08:42.651Z,9.88
2022-08-22T22:10:42.670Z,9.89
2022-08-22T22:12:42.682Z,9.85
2022-08-22T22:14:42.705Z,9.88
2022-08-22T22:16:42.734Z,9.88
2022-08-22T22:18:42.741Z,9.83
2022-08-22T22:20:42.758Z,9.84
2022-08-22T22:22:43.166Z,9.85
2022-08-22T22:24:42.787Z,9.9
2022-08-22T22:26:42.782Z,9.87
2022-08-22T22:28:42.786Z,9.88
2022-08-22T22:30:42.791Z,9.91
2022-08-22T22:32:42.803Z,9.85
2022-08-22T22:34:42.814Z,9.88
2022-08-22T22:36:42.838Z,9.85
2022-08-22T22:38:42.857Z,9.87
2022-08-22T22:40:42.869Z,9.9
2022-08-22T22:42:42.886Z,9.85
2022-08-22T22:44:43.982Z,9.91
2022-08-22T22:46:42.929Z,9.87
2022-08-22T22:48:42.926Z,9.85
2022-08-22T22:50:42.950Z,9.88
2022-08-22T22:52:42.966Z,9.89
2022-08-22T22:54:42.987Z,9.91
2022-08-22T22:56:42.997Z,9.86
2022-08-22T22:58:43.006Z,9.88
2022-08-22T23:00:43.073Z,9.89
2022-08-22T23:02:43.039Z,9.85
2022-08-22T23:04:43.067Z,9.88
2022-08-22T23:06:43.072Z,9.92
2022-08-22T23:08:43.090Z,9.86
2022-08-22T23:10:43.107Z,9.89
2022-08-22T23:12:43.121Z,9.86
2022-08-22T23:14:43.141Z,9.87
2022-08-22T23:16:43.162Z,9.86
2022-08-22T23:18:43.159Z,9.88
2022-08-22T23:20:43.160Z,9.84
2022-08-22T23:22:43.162Z,9.87
2022-08-22T23:24:43.182Z,9.88
2022-08-22T23:26:43.203Z,9.83
2022-08-22T23:28:43.207Z,9.83
2022-08-22T23:30:43.213Z,9.81
2022-08-22T23:32:43.212Z,9.77
2022-08-22T23:34:43.213Z,9.81
2022-08-22T23:36:43.215Z,9.82
2022-08-22T23:38:43.218Z,9.77
2022-08-22T23:40:43.220Z,9.78
2022-08-22T23:42:43.220Z,9.73
2022-08-22T23:44:43.222Z,9.75
2022-08-22T23:46:43.242Z,9.74
2022-08-22T23:48:43.229Z,9.77
2022-08-22T23:50:43.226Z,9.7
2022-08-22T23:52:43.232Z,9.74
2022-08-22T23:54:43.236Z,9.74
2022-08-22T23:56:43.239Z,9.74
2022-08-22T23:58:43.236Z,9.72
